createdAt,value
2023-03-13T00:00:30.292Z,5.879598662207358
2023-03-13T00:06:48.896Z,5.74247491638796
2023-03-13T00:29:54.645Z,6.2207357859531776
2023-03-13T00:37:13.718Z,6.635451505016722
2023-03-13T00:47:20.562Z,5.926421404682274
2023-03-13T00:53:39.102Z,6.023411371237458
2023-03-13T00:59:57.246Z,5.806020066889632
2023-03-13T01:06:15.524Z,5.103678929765886
2023-03-13T01:12:34.048Z,4.802675585284281
2023-03-13T01:18:52.847Z,4.879598662207358
2023-03-13T01:34:22.114Z,3.5785953177257523
2023-03-13T01:40:40.729Z,3.719063545150502
2023-03-13T01:46:59.126Z,3.2140468227424748
2023-03-13T01:53:18.170Z,3.5986622073578594
2023-03-13T01:59:36.709Z,3.528428093645485
2023-03-13T02:05:55.236Z,3.2842809364548495
2023-03-13T02:12:13.551Z,3.62876254180602
2023-03-13T02:18:31.409Z,3.6354515050167224
2023-03-13T02:24:49.368Z,3.5986622073578594
2023-03-13T02:31:07.726Z,3.3076923076923075
2023-03-13T02:40:23.881Z,3.8361204013377925
2023-03-13T02:49:30.184Z,3.3846153846153846
2023-03-13T02:55:48.632Z,3.408026755852843
2023-03-13T03:02:08.180Z,3.0535117056856187
2023-03-13T03:11:33.119Z,3.491638795986622
2023-03-13T03:17:51.372Z,3.5551839464882944
2023-03-13T03:24:10.075Z,3.2842809364548495
2023-03-13T03:30:28.454Z,3.2642140468227425
2023-03-13T03:36:46.730Z,3.4147157190635453
2023-03-13T03:43:05.131Z,3.1538461538461537
2023-03-13T03:49:23.653Z,3.31438127090301
2023-03-13T04:00:50.762Z,3.2842809364548495
2023-03-13T04:07:09.605Z,3.05685618729097
2023-03-13T04:13:28.344Z,2.9498327759197323
2023-03-13T04:26:30.946Z,2.57190635451505
2023-03-13T04:32:49.442Z,3.0133779264214047
2023-03-13T04:39:08.958Z,3.3946488294314383
2023-03-13T04:45:27.550Z,3.0267558528428093
2023-03-13T04:51:48.123Z,3.612040133779264
2023-03-13T04:58:08.997Z,3.3244147157190636
2023-03-13T05:04:27.737Z,3.4214046822742477
2023-03-13T05:10:46.119Z,3.096989966555184
2023-03-13T05:17:04.187Z,2.7357859531772575
2023-03-13T05:23:22.678Z,2.301003344481605
2023-03-13T05:29:41.200Z,2.036789297658863
2023-03-13T05:36:00.045Z,1.826086956521739
2023-03-13T05:42:19.606Z,2.0635451505016724
2023-03-13T05:48:41.100Z,1.9431438127090301
2023-03-13T06:03:21.499Z,1.7324414715719063
2023-03-13T06:09:39.940Z,1.7591973244147157
2023-03-13T06:18:43.570Z,2.0100334448160537
2023-03-13T06:32:17.619Z,2.230769230769231
2023-03-13T06:38:42.577Z,2.591973244147157
2023-03-13T06:45:02.473Z,2.698996655518395
2023-03-13T07:02:06.650Z,4.026755852842809
2023-03-13T07:08:30.763Z,4.464882943143813
2023-03-13T07:20:40.432Z,4.434782608695652
2023-03-13T07:27:07.649Z,4.54180602006689
2023-03-13T07:36:39.560Z,4.548494983277592
2023-03-13T07:50:09.425Z,3.3612040133779266
2023-03-13T07:56:30.263Z,3.3444816053511706
2023-03-13T08:02:52.186Z,3.177257525083612
2023-03-13T08:09:13.470Z,3.4581939799331103
2023-03-13T08:18:10.015Z,3.5551839464882944
2023-03-13T08:30:26.171Z,4.107023411371237
2023-03-13T08:38:53.567Z,4.39799331103679
2023-03-13T08:45:16.093Z,4.083612040133779
2023-03-13T08:51:38.885Z,4.187290969899665
2023-03-13T08:58:00.464Z,4.187290969899665
2023-03-13T09:07:44.473Z,3.769230769230769
2023-03-13T09:22:42.052Z,3.528428093645485
2023-03-13T09:29:03.156Z,4.046822742474917
2023-03-13T09:35:24.392Z,4.170568561872909
2023-03-13T09:41:44.478Z,3.0535117056856187
2023-03-13T09:48:05.175Z,2.963210702341137
2023-03-13T10:01:10.212Z,2.698996655518395
2023-03-13T10:07:32.239Z,2.5986622073578594
2023-03-13T10:14:08.383Z,3.7324414715719065
2023-03-13T10:22:08.825Z,3.4247491638795986
2023-03-13T10:28:29.771Z,1.9966555183946488
2023-03-13T10:36:21.930Z,2.1070234113712374
2023-03-13T10:43:08.298Z,1.899665551839465
2023-03-13T10:49:29.501Z,1.4983277591973243
2023-03-13T10:55:50.732Z,1.4882943143812708
2023-03-13T11:02:12.861Z,1.7959866220735785
2023-03-13T11:08:34.601Z,1.5752508361204014
2023-03-13T11:14:55.772Z,1.7391304347826086
2023-03-13T11:21:18.556Z,1.4983277591973243
2023-03-13T11:27:40.318Z,1.5384615384615385
2023-03-13T11:34:01.876Z,0.862876254180602
2023-03-13T11:40:24.561Z,1.2976588628762542
2023-03-13T11:49:39.727Z,0.6655518394648829
2023-03-13T11:56:03.357Z,0.47491638795986624
2023-03-13T12:02:25.895Z,0.36454849498327757
2023-03-13T12:08:47.765Z,0.451505016722408
2023-03-13T12:15:58.486Z,0.34782608695652173
2023-03-13T12:22:20.631Z,0.2709030100334448
2023-03-13T12:28:42.839Z,0.14715719063545152
2023-03-13T12:35:04.779Z,0.21070234113712374
2023-03-13T12:41:26.984Z,0.5551839464882943
2023-03-13T12:47:49.024Z,0.5652173913043478
2023-03-13T12:54:11.359Z,0.39464882943143814
2023-03-13T13:00:33.157Z,0.42474916387959866
2023-03-13T13:14:37.768Z,1.0702341137123745
2023-03-13T13:21:01.391Z,0.7090301003344481
2023-03-13T13:27:23.581Z,1.060200668896321
2023-03-13T13:33:44.853Z,1.0535117056856187
2023-03-13T13:44:23.255Z,0.862876254180602
2023-03-13T13:50:44.954Z,0.7725752508361204
2023-03-13T13:57:08.403Z,1.2976588628762542
2023-03-13T14:03:30.137Z,0.6622073578595318
2023-03-13T14:09:53.553Z,0.705685618729097
2023-03-13T14:16:15.470Z,0.802675585284281
2023-03-13T14:26:55.011Z,0.8963210702341137
2023-03-13T14:33:17.464Z,0.47157190635451507
2023-03-13T14:39:41.072Z,1.0434782608695652
2023-03-13T14:47:00.039Z,1.0066889632107023
2023-03-13T14:53:23.393Z,1.0100334448160535
2023-03-13T14:59:46.795Z,0.8929765886287625
2023-03-13T15:06:08.939Z,0.5752508361204013
2023-03-13T15:12:32.606Z,0.5618729096989966
2023-03-13T15:24:33.595Z,0.6187290969899666
2023-03-13T15:30:55.430Z,0.6555183946488294
2023-03-13T15:37:17.404Z,0.4816053511705686
2023-03-13T15:45:19.722Z,0.7692307692307693
2023-03-13T15:52:39.061Z,0.8963210702341137
2023-03-13T15:59:00.433Z,0.5384615384615384
2023-03-13T16:05:22.002Z,0.6555183946488294
2023-03-13T16:11:44.364Z,0.6153846153846154
2023-03-13T16:18:06.972Z,0.7658862876254181
2023-03-13T16:24:32.373Z,0.903010033444816
2023-03-13T16:30:55.417Z,0.6722408026755853
2023-03-13T16:37:58.949Z,0.7692307692307693
2023-03-13T16:44:20.214Z,0.842809364548495
2023-03-13T16:54:34.994Z,1.1872909698996656
2023-03-13T17:05:37.214Z,0.5986622073578596
2023-03-13T17:11:58.464Z,0.8528428093645485
2023-03-13T17:18:20.640Z,0.8260869565217391
2023-03-13T17:24:39.768Z,0.8193979933110368
2023-03-13T17:30:58.866Z,1.7090301003344481
2023-03-13T17:37:19.065Z,0.9264214046822743
2023-03-13T17:43:37.611Z,0.40468227424749165
2023-03-13T17:49:56.118Z,0.8762541806020067
2023-03-13T18:09:11.843Z,1.5752508361204014
2023-03-13T18:15:53.644Z,0.8561872909698997
2023-03-13T18:22:12.678Z,1.3879598662207357
2023-03-13T18:28:32.182Z,1.0936454849498327
2023-03-13T18:34:50.745Z,1.0735785953177257
2023-03-13T18:41:11.048Z,1.3210702341137124
2023-03-13T18:47:29.669Z,1.0535117056856187
2023-03-13T18:53:48.579Z,1.140468227424749
2023-03-13T19:00:08.860Z,0.8762541806020067
2023-03-13T19:06:28.019Z,1.3210702341137124
2023-03-13T19:14:27.391Z,1.6789297658862876
2023-03-13T19:20:46.449Z,2.8160535117056855
2023-03-13T19:34:15.832Z,2.0133779264214047
2023-03-13T19:40:34.883Z,10.658862876254181
2023-03-13T19:46:55.748Z,16.622073578595316
2023-03-13T19:53:15.934Z,5.575250836120401
2023-03-13T19:59:35.255Z,3.0635451505016724
2023-03-13T20:05:54.954Z,2.5384615384615383
2023-03-13T20:12:14.398Z,2.2675585284280935
2023-03-13T20:18:34.304Z,2.331103678929766
2023-03-13T20:24:56.367Z,2.62876254180602
2023-03-13T20:31:17.064Z,3.290969899665552
2023-03-13T20:37:37.342Z,3.591973244147157
2023-03-13T20:43:58.779Z,4.357859531772576
2023-03-13T20:50:27.209Z,5.431438127090301
2023-03-13T20:56:48.846Z,5.782608695652174
2023-03-13T21:03:14.007Z,10.167224080267559
2023-03-13T21:09:38.175Z,9.043478260869565
2023-03-13T21:21:03.552Z,8.297658862876254
2023-03-13T21:29:14.052Z,4.839464882943144
2023-03-13T21:36:06.346Z,3.4214046822742477
2023-03-13T21:42:26.425Z,2.882943143812709
2023-03-13T21:55:04.973Z,2.4648829431438126
2023-03-13T22:01:25.686Z,2.678929765886288
2023-03-13T22:07:44.994Z,2.076923076923077
2023-03-13T22:14:04.203Z,2.411371237458194
2023-03-13T22:20:23.152Z,2.0267558528428093
2023-03-13T22:35:40.961Z,2.2642140468227425
2023-03-13T22:47:07.822Z,2.4648829431438126
2023-03-13T22:53:26.565Z,2.1939799331103678
2023-03-13T22:59:44.916Z,2.1538461538461537
2023-03-13T23:06:17.327Z,2.4347826086956523
2023-03-13T23:12:35.532Z,3.060200668896321
2023-03-13T23:18:54.131Z,3.0133779264214047
2023-03-13T23:29:38.267Z,2.842809364548495
2023-03-13T23:35:57.129Z,3.528428093645485
2023-03-13T23:42:15.876Z,2.8862876254180603
2023-03-13T23:51:44.256Z,2.7157190635451505
2023-03-13T23:58:02.896Z,2.745819397993311
